Terminal Aerodrome Forecast
Issued by NWS Wilmington, NC

Home | Current Version | Previous Version | Text Only | Print | Product List | Glossary On
Versions: 1 2 3 4 5 6 7 8 9 10 11 12 13 14 15 16 17 18 19 20 21 22 23 24 25 26 27 28 29 30
000
FTUS42 KILM 281724
TAFLBT
TAF
KLBT 281724Z 2818/2918 VRB05KT P6SM FEW250
     FM290100 VRB03KT P6SM FEW050 BKN250
     FM291400 04005KT P6SM VCSH SCT030 BKN050
     FM291700 09005KT 6SM -SHRA BKN040=

USA.gov is the U.S. government's official web portal to all federal, state and local government web resources and services.